Terminal Aerodrome Forecast
Issued by NWS

Home | Current Version | Previous Version | Text Only | Print | Product List | Glossary On
Versions: 1 2 3 4 5 6 7 8 9 10 11 12 13 14 15 16 17 18 19 20 21 22 23
808
FTUS44 KCRP 171735
TAFALI
TAF
KALI 171735Z 1718/1818 14010KT P6SM VCSH OVC015
     FM180000 10008KT P6SM VCSH OVC012
     FM180600 09009KT 3SM BR VCTS OVC012CB
     FM181400 09004KT 5SM BR VCSH OVC018=

USA.gov is the U.S. government's official web portal to all federal, state and local government web resources and services.